Time;durP1;ratioP1;P1;durP2;ratioP2;P2;SDS_P1;SDS_P2;PMS_P1;PMS_P2;Temp;Humidity;BMP_temperature;BMP_pressure;BME280_temperature;BME280_humidity;BME280_pressure;Samples;Min_cycle;Max_cycle;Signal;HPM_P1;HPM_P2
2022/01/31 00:00:52;;;;;;;36.75;4.95;;;7.20;87.80;;;;;;4993222;28;20500;-80
2022/01/31 00:03:17;;;;;;;32.13;5.13;;;7.20;87.70;;;;;;4993042;28;20576;-80
2022/01/31 00:05:43;;;;;;;36.45;5.28;;;7.20;87.30;;;;;;4994564;28;20077;-80
2022/01/31 00:08:08;;;;;;;40.13;5.97;;;7.10;87.50;;;;;;4993170;28;20097;-81
2022/01/31 00:10:34;;;;;;;38.83;5.25;;;7.10;87.60;;;;;;4993283;28;20123;-81
2022/01/31 00:13:04;;;;;;;29.23;5.28;;;7.10;87.60;;;;;;4994529;28;20029;-80
2022/01/31 00:15:31;;;;;;;43.65;5.80;;;7.10;87.80;;;;;;4993262;28;20030;-80
2022/01/31 00:17:57;;;;;;;38.67;5.00;;;7.00;87.80;;;;;;4993184;28;20038;-80
2022/01/31 00:20:22;;;;;;;38.50;5.38;;;7.00;88.00;;;;;;4993827;28;20066;-80
2022/01/31 00:22:48;;;;;;;33.28;4.97;;;6.90;87.80;;;;;;4993927;28;20034;-80
2022/01/31 00:25:14;;;;;;;32.45;5.10;;;7.00;88.10;;;;;;4994443;28;20048;-79
2022/01/31 00:27:40;;;;;;;39.00;4.85;;;7.00;87.90;;;;;;4993589;28;20096;-81
2022/01/31 00:30:06;;;;;;;33.75;5.30;;;6.70;88.10;;;;;;4992732;28;20404;-79
2022/01/31 00:32:32;;;;;;;39.97;5.07;;;6.90;88.40;;;;;;4994212;28;20081;-82
2022/01/31 00:34:58;;;;;;;36.35;4.65;;;6.90;88.20;;;;;;4993575;28;20046;-81
2022/01/31 00:37:24;;;;;;;36.22;5.53;;;6.90;88.20;;;;;;4992151;28;20480;-81
2022/01/31 00:39:50;;;;;;;27.92;3.92;;;6.90;88.20;;;;;;4993457;28;20076;-81
2022/01/31 00:42:15;;;;;;;28.73;4.90;;;6.90;88.30;;;;;;4993331;28;20122;-81
2022/01/31 00:44:52;;;;;;;32.53;5.47;;;6.90;88.10;;;;;;4993878;28;20054;-83
2022/01/31 00:47:22;;;;;;;35.88;5.07;;;6.90;88.20;;;;;;4992469;28;20046;-81
2022/01/31 00:49:52;;;;;;;42.25;5.28;;;6.80;88.20;;;;;;4976159;28;20560;-80
2022/01/31 00:52:18;;;;;;;33.47;4.75;;;6.70;88.60;;;;;;4973571;28;20081;-81
2022/01/31 00:54:45;;;;;;;40.72;4.95;;;6.70;88.80;;;;;;4981366;28;20053;-80
2022/01/31 00:57:11;;;;;;;36.63;5.68;;;6.70;89.10;;;;;;4989751;28;20034;-78
2022/01/31 00:59:36;;;;;;;37.05;5.07;;;6.70;89.10;;;;;;4973214;28;20044;-78
2022/01/31 01:02:02;;;;;;;35.88;5.03;;;6.70;89.10;;;;;;4990853;28;20034;-79
2022/01/31 01:04:28;;;;;;;38.35;4.95;;;6.70;89.20;;;;;;4979457;28;20065;-81
2022/01/31 01:06:53;;;;;;;32.97;5.05;;;6.60;89.70;;;;;;4972683;28;20027;-79
2022/01/31 01:09:19;;;;;;;44.05;6.93;;;6.50;89.80;;;;;;4977293;28;20018;-79
2022/01/31 01:11:44;;;;;;;41.78;5.88;;;6.50;89.90;;;;;;4993687;28;20030;-80
2022/01/31 01:14:10;;;;;;;39.67;5.57;;;6.50;90.00;;;;;;4974058;28;20030;-81
2022/01/31 01:16:36;;;;;;;37.75;6.20;;;6.40;90.10;;;;;;4973458;28;20133;-81
2022/01/31 01:19:03;;;;;;;32.63;4.55;;;6.50;90.20;;;;;;4973501;28;20392;-81
2022/01/31 01:21:29;;;;;;;30.48;4.47;;;6.40;90.10;;;;;;4973202;28;20342;-80
2022/01/31 01:23:55;;;;;;;35.35;5.55;;;6.50;90.30;;;;;;4973407;28;20046;-81
2022/01/31 01:26:20;;;;;;;35.63;5.82;;;6.30;90.40;;;;;;4992050;28;20022;-80
2022/01/31 01:28:46;;;;;;;38.55;6.53;;;6.30;90.50;;;;;;4975732;28;20492;-81
2022/01/31 01:31:12;;;;;;;35.05;5.10;;;6.30;90.50;;;;;;4973253;28;20027;-81
2022/01/31 01:33:40;;;;;;;31.50;4.85;;;6.20;90.70;;;;;;4972004;28;20061;-81
2022/01/31 01:36:07;;;;;;;31.63;5.38;;;6.20;90.80;;;;;;4973040;28;20026;-81
2022/01/31 01:38:34;;;;;;;43.10;5.45;;;6.10;90.90;;;;;;4972361;28;20041;-80
2022/01/31 01:41:01;;;;;;;31.90;5.28;;;6.20;90.90;;;;;;4972114;28;20046;-81
2022/01/31 01:43:32;;;;;;;45.28;6.53;;;6.10;91.00;;;;;;4972936;28;20041;-80
2022/01/31 01:45:59;;;;;;;47.88;6.25;;;6.40;91.10;;;;;;4981312;28;20538;-81
2022/01/31 01:48:25;;;;;;;44.20;5.68;;;6.20;91.10;;;;;;4987167;28;20042;-81
2022/01/31 01:50:50;;;;;;;27.90;5.03;;;6.20;91.20;;;;;;4972840;28;20118;-80
2022/01/31 01:53:18;;;;;;;45.85;6.80;;;6.10;91.10;;;;;;4972499;28;20110;-80
2022/01/31 01:55:46;;;;;;;40.13;5.82;;;6.10;91.30;;;;;;4988571;28;20130;-82
2022/01/31 01:58:16;;;;;;;40.70;5.43;;;6.00;91.30;;;;;;4980660;28;20042;-81
2022/01/31 02:00:49;;;;;;;43.97;5.85;;;6.00;91.30;;;;;;4979333;28;20026;-81
2022/01/31 02:03:16;;;;;;;41.15;4.68;;;6.00;91.40;;;;;;4988436;28;20033;-80
2022/01/31 02:05:42;;;;;;;39.08;4.45;;;6.00;91.30;;;;;;4972923;28;20035;-79
2022/01/31 02:08:08;;;;;;;38.20;5.05;;;6.10;91.40;;;;;;4972535;28;20491;-80
2022/01/31 02:10:34;;;;;;;40.42;5.38;;;6.10;91.40;;;;;;4986029;28;20027;-80
2022/01/31 02:13:08;;;;;;;44.17;6.97;;;6.10;91.40;;;;;;4982096;28;20102;-81
2022/01/31 02:15:34;;;;;;;32.65;4.82;;;6.20;91.50;;;;;;4971765;28;20485;-81
2022/01/31 02:18:00;;;;;;;31.73;4.57;;;6.20;91.40;;;;;;4972765;28;20057;-81
2022/01/31 02:20:26;;;;;;;35.28;5.38;;;6.10;91.50;;;;;;4972804;28;20031;-80
2022/01/31 02:22:52;;;;;;;43.47;6.32;;;6.20;91.50;;;;;;4972464;28;20030;-80
2022/01/31 02:25:18;;;;;;;40.83;6.22;;;6.10;91.60;;;;;;4984559;28;20054;-80
2022/01/31 02:27:44;;;;;;;32.28;4.78;;;6.10;91.50;;;;;;4984120;28;20038;-80
2022/01/31 02:30:12;;;;;;;28.75;5.00;;;6.20;91.50;;;;;;4972650;28;20118;-81
2022/01/31 02:32:38;;;;;;;42.05;5.10;;;6.10;91.40;;;;;;4972849;28;20038;-82
2022/01/31 02:35:05;;;;;;;46.95;5.32;;;6.20;91.40;;;;;;4972163;28;20043;-82
2022/01/31 02:37:31;;;;;;;45.88;6.15;;;6.20;91.40;;;;;;4972538;28;20065;-81
2022/01/31 02:39:57;;;;;;;35.03;5.63;;;6.10;91.30;;;;;;4972286;28;20077;-84
2022/01/31 02:42:23;;;;;;;35.75;5.10;;;6.10;91.50;;;;;;5003965;28;20039;-82
2022/01/31 02:44:49;;;;;;;48.47;5.38;;;6.10;91.50;;;;;;4974706;28;20019;-81
2022/01/31 02:47:21;;;;;;;46.20;4.70;;;6.10;91.50;;;;;;4976507;28;20031;-80
2022/01/31 02:49:52;;;;;;;38.58;5.53;;;6.10;91.50;;;;;;4975130;28;20031;-82
2022/01/31 02:52:18;;;;;;;37.85;4.55;;;6.10;91.50;;;;;;4975952;28;20027;-81
2022/01/31 02:54:44;;;;;;;25.38;4.57;;;6.10;91.50;;;;;;4976242;28;20106;-80
2022/01/31 02:57:10;;;;;;;38.47;5.07;;;6.10;91.50;;;;;;4978159;28;20109;-79
2022/01/31 02:59:36;;;;;;;24.10;3.92;;;6.10;91.50;;;;;;4994662;28;20570;-79
2022/01/31 03:02:02;;;;;;;31.48;4.93;;;6.10;91.40;;;;;;4977080;28;20373;-81
2022/01/31 03:04:29;;;;;;;36.97;5.03;;;6.10;91.40;;;;;;4976086;28;20373;-80
2022/01/31 03:06:55;;;;;;;26.23;4.72;;;6.10;91.50;;;;;;4975826;28;20030;-79
2022/01/31 03:09:21;;;;;;;25.95;4.32;;;6.00;91.60;;;;;;4974890;28;20045;-79
2022/01/31 03:11:47;;;;;;;40.67;6.22;;;6.00;91.80;;;;;;4975887;28;20515;-79
2022/01/31 03:14:15;;;;;;;26.88;3.72;;;6.00;91.80;;;;;;4975218;28;20022;-80
2022/01/31 03:16:44;;;;;;;29.58;4.22;;;6.00;91.80;;;;;;4975203;28;20081;-80
2022/01/31 03:19:10;;;;;;;35.45;5.00;;;6.00;91.80;;;;;;4983417;28;20031;-80
2022/01/31 03:21:36;;;;;;;28.58;4.57;;;6.00;91.90;;;;;;4975574;28;20043;-79
2022/01/31 03:24:03;;;;;;;31.17;4.88;;;6.00;91.90;;;;;;4975552;28;20019;-80
2022/01/31 03:26:28;;;;;;;24.25;4.25;;;6.10;91.80;;;;;;4976400;28;20069;-79
2022/01/31 03:28:54;;;;;;;36.22;4.78;;;6.10;91.70;;;;;;4975741;28;20117;-79
2022/01/31 03:31:23;;;;;;;23.13;3.90;;;6.00;91.80;;;;;;4975764;28;20027;-80
2022/01/31 03:33:51;;;;;;;28.73;4.88;;;6.00;91.90;;;;;;4975964;28;20656;-80
2022/01/31 03:36:17;;;;;;;31.08;3.72;;;6.00;92.00;;;;;;4975541;28;20437;-81
2022/01/31 03:38:43;;;;;;;31.25;4.63;;;6.00;91.90;;;;;;4976035;28;20076;-80
2022/01/31 03:41:11;;;;;;;25.65;3.53;;;6.10;92.00;;;;;;4975567;28;20054;-79
2022/01/31 03:43:37;;;;;;;;;;;6.00;91.90;;;;;;4975466;28;20503;-80
2022/01/31 03:46:04;;;;;;;27.30;4.78;;;6.00;91.90;;;;;;4975151;28;19914;-79
2022/01/31 03:48:29;;;;;;;23.75;3.03;;;6.10;91.90;;;;;;4990205;28;20035;-80
2022/01/31 03:50:57;;;;;;;29.42;4.03;;;6.10;91.90;;;;;;4975335;28;20090;-80
2022/01/31 03:53:23;;;;;;;26.08;4.03;;;6.10;91.90;;;;;;4975455;28;20018;-78
2022/01/31 03:55:49;;;;;;;23.33;3.88;;;6.10;92.00;;;;;;4973893;28;20046;-81
2022/01/31 03:58:14;;;;;;;22.20;3.75;;;6.10;92.00;;;;;;4975153;28;20042;-82
2022/01/31 04:00:41;;;;;;;28.02;5.68;;;6.10;91.90;;;;;;4990360;28;20138;-82
2022/01/31 04:03:07;;;;;;;28.13;4.40;;;6.10;92.00;;;;;;4975352;28;20098;-80
2022/01/31 04:05:32;;;;;;;26.80;4.43;;;6.10;92.00;;;;;;4976543;28;20065;-83
2022/01/31 04:07:58;;;;;;;25.77;3.97;;;6.10;92.00;;;;;;4976074;28;20604;-81
2022/01/31 04:10:25;;;;;;;27.40;4.75;;;6.00;92.00;;;;;;4975985;28;20027;-81
2022/01/31 04:12:51;;;;;;;29.88;4.25;;;6.10;92.10;;;;;;4990025;28;20034;-82
2022/01/31 04:15:16;;;;;;;28.60;3.97;;;6.00;92.20;;;;;;4974758;28;20031;-80
2022/01/31 04:17:43;;;;;;;19.42;3.65;;;6.10;92.40;;;;;;4974364;28;20039;-79
2022/01/31 04:20:11;;;;;;;26.02;4.63;;;6.10;92.50;;;;;;4989639;28;20178;-81
2022/01/31 04:22:44;;;;;;;26.52;4.07;;;6.00;92.70;;;;;;4989884;28;20042;-82
2022/01/31 04:25:27;;;;;;;27.15;4.32;;;6.00;93.10;;;;;;4974783;28;20039;-81
2022/01/31 04:28:01;;;;;;;31.20;5.13;;;5.90;93.60;;;;;;4973220;28;20491;-81
2022/01/31 04:30:27;;;;;;;23.98;4.20;;;5.90;94.00;;;;;;4989586;28;20031;-82
2022/01/31 04:32:52;;;;;;;26.40;3.75;;;5.90;94.30;;;;;;4973554;28;20369;-82
2022/01/31 04:35:18;;;;;;;18.60;4.20;;;5.90;94.50;;;;;;4975211;28;20050;-83
2022/01/31 04:37:44;;;;;;;20.48;4.28;;;5.80;95.10;;;;;;4974453;28;20050;-81
2022/01/31 04:40:13;;;;;;;26.10;4.40;;;5.70;95.70;;;;;;4974181;28;20094;-83
2022/01/31 04:42:42;;;;;;;30.52;4.28;;;5.70;95.80;;;;;;4973293;28;20035;-82
2022/01/31 04:45:08;;;;;;;25.33;4.47;;;5.70;96.20;;;;;;4989659;28;20477;-83
2022/01/31 04:47:34;;;;;;;28.30;4.60;;;5.60;96.40;;;;;;4974715;28;20031;-84
2022/01/31 04:49:59;;;;;;;21.92;3.95;;;5.60;96.50;;;;;;4972911;28;20039;-83
2022/01/31 04:52:25;;;;;;;25.33;3.83;;;5.60;96.50;;;;;;4972953;28;20047;-82
2022/01/31 04:54:50;;;;;;;25.45;4.25;;;5.50;96.70;;;;;;4973045;28;20027;-82
2022/01/31 04:57:17;;;;;;;29.55;4.30;;;5.50;97.00;;;;;;4974034;28;20031;-82
2022/01/31 04:59:43;;;;;;;20.10;4.32;;;5.50;97.10;;;;;;4974374;28;20054;-81
2022/01/31 05:02:10;;;;;;;20.35;4.25;;;5.50;97.20;;;;;;4973304;28;20341;-82
2022/01/31 05:04:35;;;;;;;24.52;4.60;;;5.50;97.20;;;;;;4974671;28;20047;-85
2022/01/31 05:07:03;;;;;;;28.63;4.47;;;5.40;97.50;;;;;;4973484;28;20147;-82
2022/01/31 05:09:28;;;;;;;25.00;4.82;;;5.30;97.70;;;;;;4974044;28;20023;-81
2022/01/31 05:11:54;;;;;;;22.35;4.05;;;5.30;98.00;;;;;;4973957;28;20464;-83
2022/01/31 05:14:19;;;;;;;21.20;3.50;;;5.20;98.00;;;;;;4974300;28;20045;-83
2022/01/31 05:16:45;;;;;;;26.45;4.35;;;5.30;98.30;;;;;;4973609;28;20041;-82
2022/01/31 05:19:11;;;;;;;24.17;3.60;;;5.10;98.50;;;;;;4973455;28;20026;-81
2022/01/31 05:21:38;;;;;;;31.05;4.68;;;5.20;98.50;;;;;;4972567;28;20037;-81
2022/01/31 05:24:04;;;;;;;21.30;4.57;;;5.20;98.50;;;;;;4973562;28;20019;-84
2022/01/31 05:26:30;;;;;;;26.65;3.95;;;5.10;98.60;;;;;;4973524;28;20065;-81
2022/01/31 05:28:56;;;;;;;14.85;3.70;;;5.10;98.60;;;;;;4973194;28;20066;-82
2022/01/31 05:31:22;;;;;;;12.55;4.05;;;5.20;98.70;;;;;;4988350;28;20058;-81
2022/01/31 05:33:47;;;;;;;14.73;4.28;;;5.10;98.80;;;;;;4972947;28;20046;-81
2022/01/31 05:36:13;;;;;;;22.67;3.53;;;5.00;99.30;;;;;;4988279;28;20035;-80
2022/01/31 05:38:39;;;;;;;18.80;4.55;;;5.00;98.90;;;;;;4972508;28;20034;-81
2022/01/31 05:41:08;;;;;;;15.23;3.30;;;4.90;99.10;;;;;;4987908;28;20049;-82
2022/01/31 05:43:34;;;;;;;11.05;3.33;;;4.90;99.10;;;;;;4973110;28;20052;-82
2022/01/31 05:46:00;;;;;;;17.35;3.92;;;4.90;99.40;;;;;;4973035;28;20110;-82
2022/01/31 05:48:26;;;;;;;15.35;4.07;;;4.80;99.30;;;;;;4973054;28;20486;-80
2022/01/31 05:50:52;;;;;;;19.70;3.92;;;4.90;99.50;;;;;;4972838;28;20512;-79
2022/01/31 05:53:17;;;;;;;10.55;3.30;;;4.90;99.50;;;;;;4972174;28;20098;-81
2022/01/31 05:55:45;;;;;;;19.77;4.10;;;4.80;99.40;;;;;;4973051;28;20122;-81
2022/01/31 05:58:10;;;;;;;13.07;3.97;;;4.80;99.70;;;;;;4972792;28;20092;-81
2022/01/31 06:00:37;;;;;;;11.75;3.72;;;4.70;99.70;;;;;;4972802;28;20118;-81
2022/01/31 06:03:03;;;;;;;18.52;4.40;;;4.70;99.70;;;;;;4973127;28;20023;-81
2022/01/31 06:05:29;;;;;;;15.70;5.22;;;4.70;99.70;;;;;;4972261;28;20025;-82
2022/01/31 06:07:55;;;;;;;23.17;7.63;;;4.60;99.70;;;;;;4972746;28;20038;-82
2022/01/31 06:10:23;;;;;;;15.88;4.47;;;4.60;99.70;;;;;;4972873;28;20035;-81
2022/01/31 06:12:48;;;;;;;;;;;4.50;99.70;;;;;;4972525;28;20038;-81
2022/01/31 06:15:14;;;;;;;12.43;3.10;;;4.60;99.60;;;;;;4973271;28;19910;-81
2022/01/31 06:17:40;;;;;;;10.02;3.28;;;4.60;99.50;;;;;;4973507;28;20041;-81
2022/01/31 06:20:06;;;;;;;11.65;3.25;;;4.50;99.50;;;;;;4976195;28;20043;-81
2022/01/31 06:22:32;;;;;;;10.60;2.75;;;4.60;99.60;;;;;;4976872;28;20495;-81
2022/01/31 06:24:57;;;;;;;11.82;3.58;;;4.60;99.50;;;;;;4975786;28;20042;-81
2022/01/31 06:27:23;;;;;;;6.28;3.05;;;4.60;99.40;;;;;;4976685;28;20065;-80
2022/01/31 06:29:48;;;;;;;7.65;2.97;;;4.50;99.50;;;;;;4977021;28;20094;-82
2022/01/31 06:32:14;;;;;;;9.85;2.90;;;4.50;99.50;;;;;;4972139;28;20067;-79
2022/01/31 06:34:40;;;;;;;7.35;2.92;;;4.40;99.70;;;;;;4957090;28;20058;-79
2022/01/31 06:37:06;;;;;;;24.95;9.18;;;4.40;99.70;;;;;;4957276;28;20031;-76
2022/01/31 06:39:32;;;;;;;12.30;4.18;;;4.40;99.70;;;;;;4957265;28;20042;-85
2022/01/31 06:41:58;;;;;;;7.07;2.80;;;4.40;99.60;;;;;;4958948;28;20364;-85
2022/01/31 06:44:23;;;;;;;11.75;3.60;;;4.30;99.80;;;;;;4958687;28;20464;-87
2022/01/31 06:46:55;;;;;;;8.57;3.03;;;4.30;99.90;;;;;;4959224;28;20027;-85
2022/01/31 06:49:21;;;;;;;7.68;2.50;;;4.30;99.90;;;;;;4958785;28;20111;-86
2022/01/31 06:51:47;;;;;;;5.00;2.45;;;4.30;99.90;;;;;;4957581;28;20469;-84
2022/01/31 06:54:13;;;;;;;5.80;2.35;;;4.30;99.90;;;;;;4957240;28;20105;-86
2022/01/31 06:56:42;;;;;;;7.72;2.78;;;4.30;99.90;;;;;;4957396;29;20059;-88
2022/01/31 06:59:07;;;;;;;6.93;2.72;;;4.30;99.90;;;;;;4956391;28;20047;-77
2022/01/31 07:01:33;;;;;;;4.57;2.35;;;4.20;99.90;;;;;;4955678;28;20031;-84
2022/01/31 07:03:58;;;;;;;4.28;2.22;;;4.20;99.90;;;;;;4956703;28;20362;-84
2022/01/31 07:06:25;;;;;;;3.00;1.92;;;4.20;99.90;;;;;;4955450;28;20112;-87
2022/01/31 07:08:51;;;;;;;4.47;2.45;;;4.20;99.90;;;;;;4956006;28;20038;-86
2022/01/31 07:11:22;;;;;;;7.13;2.28;;;4.20;99.90;;;;;;4957039;28;20023;-84
2022/01/31 07:13:50;;;;;;;3.70;1.90;;;4.20;99.90;;;;;;4955129;28;20114;-92
2022/01/31 07:16:15;;;;;;;5.75;1.80;;;4.30;99.90;;;;;;4959239;28;20080;-83
2022/01/31 07:18:42;;;;;;;4.60;2.10;;;4.20;99.90;;;;;;4957079;28;20110;-80
2022/01/31 07:21:12;;;;;;;4.38;2.00;;;4.20;99.90;;;;;;4958213;28;20081;-84
2022/01/31 07:24:03;;;;;;;3.55;2.30;;;4.20;99.90;;;;;;4957783;28;20030;-83
2022/01/31 07:26:29;;;;;;;6.78;2.20;;;4.20;99.90;;;;;;4975717;28;20469;-76
2022/01/31 07:28:55;;;;;;;2.72;1.77;;;4.30;99.90;;;;;;4990255;28;20130;-75
2022/01/31 07:31:20;;;;;;;5.78;2.10;;;4.20;99.90;;;;;;4990423;28;20125;-84
2022/01/31 07:33:46;;;;;;;3.13;1.75;;;4.30;99.90;;;;;;4975387;28;20066;-74
2022/01/31 07:36:11;;;;;;;3.13;1.90;;;4.30;99.90;;;;;;4997716;28;20262;-80
2022/01/31 07:38:37;;;;;;;4.90;2.20;;;4.40;99.90;;;;;;5014009;28;20128;-79
2022/01/31 07:41:04;;;;;;;4.95;1.88;;;4.40;99.90;;;;;;5014646;28;20049;-84
2022/01/31 07:43:31;;;;;;;4.75;2.00;;;4.50;99.90;;;;;;5015296;28;20396;-83
2022/01/31 07:45:56;;;;;;;4.78;1.77;;;4.50;99.90;;;;;;5015438;28;20045;-83
2022/01/31 07:48:25;;;;;;;6.47;2.60;;;4.60;99.90;;;;;;5015385;28;20034;-82
2022/01/31 07:50:51;;;;;;;4.00;1.98;;;4.80;99.80;;;;;;5015894;28;20084;-79
2022/01/31 07:53:17;;;;;;;6.80;3.50;;;4.90;99.80;;;;;;5014701;28;20033;-79
2022/01/31 07:55:42;;;;;;;5.00;2.28;;;5.00;99.90;;;;;;5014591;28;20053;-82
2022/01/31 07:58:08;;;;;;;2.88;1.92;;;5.00;99.90;;;;;;5015871;28;20044;-85
2022/01/31 08:00:33;;;;;;;6.55;2.40;;;5.00;99.90;;;;;;5017038;28;20342;-83
2022/01/31 08:02:59;;;;;;;4.40;2.65;;;5.00;99.90;;;;;;5017097;28;20025;-87
2022/01/31 08:05:26;;;;;;;8.38;3.17;;;5.00;99.90;;;;;;5016555;28;20183;-79
2022/01/31 08:07:51;;;;;;;8.25;3.22;;;5.10;99.90;;;;;;5017425;28;20095;-89
2022/01/31 08:10:17;;;;;;;12.05;3.25;;;5.10;99.90;;;;;;5018774;28;20118;-85
2022/01/31 08:12:44;;;;;;;9.40;3.55;;;5.20;99.90;;;;;;5017871;28;20030;-86
2022/01/31 08:15:19;;;;;;;10.20;3.70;;;5.30;99.90;;;;;;5015464;28;20121;-75
2022/01/31 08:17:44;;;;;;;9.20;3.95;;;5.30;99.90;;;;;;5016383;28;20034;-83
2022/01/31 08:20:12;;;;;;;9.95;3.55;;;5.40;99.90;;;;;;5015992;28;20041;-78
2022/01/31 08:22:38;;;;;;;7.22;4.07;;;5.50;99.90;;;;;;5016060;28;20387;-78
2022/01/31 08:25:05;;;;;;;14.43;4.43;;;5.60;99.90;;;;;;5015900;28;20110;-84
2022/01/31 08:27:31;;;;;;;13.68;4.80;;;5.60;99.90;;;;;;5016297;28;20022;-82
2022/01/31 08:30:06;;;;;;;10.48;4.28;;;5.60;99.90;;;;;;5015500;28;20053;-78
2022/01/31 08:32:44;;;;;;;10.38;4.85;;;5.80;99.90;;;;;;5015087;28;20040;-82
2022/01/31 08:37:54;;;;;;;16.80;4.95;;;6.00;99.90;;;;;;5017012;28;20033;-87
2022/01/31 08:40:20;;;;;;;14.52;4.53;;;6.10;99.90;;;;;;5016848;28;20091;-83
2022/01/31 08:42:46;;;;;;;16.80;5.10;;;6.10;99.90;;;;;;5016321;28;20033;-86
2022/01/31 08:45:11;;;;;;;9.82;4.20;;;6.20;99.90;;;;;;5016586;28;20045;-80
2022/01/31 08:47:41;;;;;;;17.42;4.82;;;6.20;99.90;;;;;;5014026;28;20092;-75
2022/01/31 08:50:10;;;;;;;18.05;4.97;;;6.30;99.90;;;;;;5013384;28;20372;-73
2022/01/31 08:52:36;;;;;;;12.68;4.57;;;6.10;99.90;;;;;;5013374;28;20034;-73
2022/01/31 08:55:02;;;;;;;14.57;4.50;;;6.10;99.90;;;;;;5013545;28;20034;-84
2022/01/31 08:57:28;;;;;;;16.17;4.38;;;6.20;99.90;;;;;;5013600;28;20037;-82
2022/01/31 08:59:54;;;;;;;20.65;4.95;;;6.30;99.90;;;;;;5014745;28;20022;-91
2022/01/31 09:02:29;;;;;;;10.18;4.07;;;6.40;99.90;;;;;;5014871;28;20034;-79
2022/01/31 09:04:55;;;;;;;17.38;5.10;;;6.40;99.90;;;;;;5014920;28;20094;-87
2022/01/31 09:07:22;;;;;;;14.50;3.42;;;6.50;99.90;;;;;;5015233;28;20616;-82
2022/01/31 09:09:52;;;;;;;15.00;4.85;;;6.50;99.90;;;;;;5013056;28;20050;-83
2022/01/31 09:12:24;;;;;;;15.60;4.40;;;6.50;99.90;;;;;;5015400;28;20018;-81
2022/01/31 09:14:50;;;;;;;12.65;4.63;;;6.50;99.90;;;;;;5016105;28;20395;-81
2022/01/31 09:17:15;;;;;;;11.35;4.05;;;6.60;99.90;;;;;;5013946;28;20034;-85
2022/01/31 09:19:41;;;;;;;16.08;4.75;;;6.60;99.90;;;;;;5015732;28;20034;-85
2022/01/31 09:22:07;;;;;;;18.30;4.85;;;6.70;99.90;;;;;;5015061;28;20036;-79
2022/01/31 09:24:38;;;;;;;16.50;4.47;;;6.80;99.90;;;;;;5015717;28;20392;-87
2022/01/31 09:27:08;;;;;;;14.60;3.92;;;6.80;99.90;;;;;;5017241;28;20182;-80
2022/01/31 09:29:35;;;;;;;12.52;4.22;;;6.90;99.90;;;;;;5016348;28;20117;-80
2022/01/31 09:32:03;;;;;;;19.40;4.10;;;6.90;99.90;;;;;;4983594;28;20069;-89
2022/01/31 09:34:32;;;;;;;19.15;5.00;;;7.10;99.90;;;;;;4990943;28;20093;-78
2022/01/31 09:37:00;;;;;;;10.43;3.47;;;7.20;99.90;;;;;;4973331;28;20377;-77
2022/01/31 09:39:26;;;;;;;19.10;4.18;;;7.30;99.90;;;;;;5006601;28;20057;-75
2022/01/31 09:41:55;;;;;;;18.50;4.38;;;7.30;99.90;;;;;;4974016;28;20093;-77
2022/01/31 09:44:37;;;;;;;19.27;3.97;;;7.20;99.90;;;;;;5007027;28;20038;-86
2022/01/31 09:49:30;;;;;;;15.85;4.20;;;7.30;99.90;;;;;;4973604;28;20035;-79
2022/01/31 09:51:56;;;;;;;16.20;4.50;;;7.40;99.90;;;;;;4973284;28;20116;-86
2022/01/31 09:54:24;;;;;;;20.05;4.20;;;7.30;99.90;;;;;;4974055;28;20030;-86
2022/01/31 09:56:50;;;;;;;18.15;4.13;;;7.40;99.90;;;;;;4973964;28;20027;-83
2022/01/31 09:59:17;;;;;;;10.45;2.95;;;7.50;99.90;;;;;;4973748;28;20496;-82
2022/01/31 10:01:46;;;;;;;13.50;3.40;;;7.50;99.90;;;;;;4973853;28;20054;-84
2022/01/31 10:04:23;;;;;;;14.45;4.55;;;7.50;99.90;;;;;;4975718;28;20027;-82
2022/01/31 10:06:51;;;;;;;15.52;4.13;;;7.50;99.90;;;;;;4976053;28;20030;-89
2022/01/31 10:09:19;;;;;;;13.65;2.72;;;7.30;99.90;;;;;;4974821;28;20054;-83
2022/01/31 10:11:50;;;;;;;7.85;3.00;;;7.30;99.90;;;;;;4975064;28;20166;-85
2022/01/31 10:17:29;;;;;;;13.20;3.97;;;7.50;99.90;;;;;;4977440;28;20097;-83
2022/01/31 10:20:00;;;;;;;14.27;2.85;;;7.60;99.90;;;;;;4974808;28;20030;-79
2022/01/31 10:22:28;;;;;;;14.88;2.97;;;7.80;99.90;;;;;;4975581;28;20027;-90
2022/01/31 10:24:55;;;;;;;;;;;7.80;99.90;;;;;;4975137;28;20038;-76
2022/01/31 10:27:29;;;;;;;9.38;2.67;;;7.70;99.90;;;;;;4973746;28;19906;-77
2022/01/31 10:30:05;;;;;;;11.27;2.30;;;7.60;99.90;;;;;;4993629;28;20042;-78
2022/01/31 10:32:35;;;;;;;8.23;2.42;;;7.70;99.90;;;;;;4976701;28;20031;-84
2022/01/31 10:35:06;;;;;;;11.95;2.20;;;7.70;99.90;;;;;;4973321;28;20086;-76
2022/01/31 10:37:33;;;;;;;10.00;2.50;;;7.80;99.90;;;;;;4973003;28;20026;-83
2022/01/31 10:54:13;;;;;;;4.82;1.65;;;7.70;99.90;;;;;;4976356;28;20449;-93
2022/01/31 10:56:43;;;;;;;14.32;1.58;;;7.60;99.90;;;;;;4975054;28;20034;-85
2022/01/31 10:59:13;;;;;;;6.57;1.60;;;7.50;99.90;;;;;;5005135;28;20039;-85
2022/01/31 11:01:40;;;;;;;3.70;1.30;;;7.40;99.90;;;;;;4973319;28;20384;-85
2022/01/31 11:04:10;;;;;;;7.30;1.40;;;7.60;99.90;;;;;;4973828;28;20118;-85
2022/01/31 11:06:37;;;;;;;5.97;1.50;;;7.60;99.90;;;;;;4977055;28;20122;-86
2022/01/31 11:09:08;;;;;;;3.05;1.15;;;7.60;99.90;;;;;;4992742;28;20105;-86
2022/01/31 11:11:36;;;;;;;4.60;1.15;;;7.60;99.90;;;;;;4978274;28;20031;-87
2022/01/31 11:14:03;;;;;;;5.30;1.00;;;7.60;99.90;;;;;;4992557;28;20031;-86
2022/01/31 11:16:30;;;;;;;2.83;1.10;;;7.70;99.90;;;;;;4978141;28;20055;-88
2022/01/31 11:19:06;;;;;;;5.60;1.83;;;7.60;99.90;;;;;;4977516;28;20031;-85
2022/01/31 11:21:34;;;;;;;5.82;1.33;;;7.70;99.90;;;;;;4977099;28;20015;-84
2022/01/31 11:24:02;;;;;;;2.92;1.35;;;7.70;99.90;;;;;;4977607;28;20015;-81
2022/01/31 11:26:36;;;;;;;1.77;1.27;;;7.90;99.90;;;;;;4976604;28;20034;-81
2022/01/31 11:29:03;;;;;;;3.03;1.38;;;7.90;99.90;;;;;;4975229;28;20038;-76
2022/01/31 11:31:29;;;;;;;2.35;1.00;;;7.90;99.80;;;;;;4976384;28;20035;-78
2022/01/31 12:46:28;;;;;;;5.82;1.50;;;8.70;99.60;;;;;;4986252;28;20041;-84
2022/01/31 12:52:16;;;;;;;4.97;1.40;;;8.50;99.60;;;;;;5001532;28;20088;-85
2022/01/31 12:58:04;;;;;;;7.63;1.83;;;8.70;99.20;;;;;;5005932;28;20093;-85
2022/01/31 13:03:54;;;;;;;5.60;1.50;;;8.70;99.20;;;;;;4998705;28;20044;-87
2022/01/31 13:09:27;;;;;;;5.68;1.45;;;8.50;99.10;;;;;;4998372;28;19920;-83
2022/01/31 13:15:22;;;;;;;4.18;1.35;;;8.40;99.40;;;;;;4999661;28;20029;-81
2022/01/31 13:21:12;;;;;;;6.95;2.10;;;8.40;99.50;;;;;;4997552;28;20038;-90
2022/01/31 13:27:01;;;;;;;4.45;1.50;;;8.20;99.70;;;;;;5001144;28;20065;-94
2022/01/31 13:32:49;;;;;;;1.80;1.20;;;8.30;99.80;;;;;;5002444;28;20080;-91
2022/01/31 13:38:43;;;;;;;6.60;1.60;;;8.30;99.90;;;;;;4998114;28;20065;-85
2022/01/31 13:44:34;;;;;;;2.75;1.40;;;8.70;99.40;;;;;;4997262;28;20391;-81
2022/01/31 13:47:00;;;;;;;5.13;1.75;;;8.60;99.40;;;;;;4994815;28;20038;-80
2022/01/31 13:49:33;;;;;;;8.75;2.28;;;8.70;99.40;;;;;;4995039;28;20387;-82
2022/01/31 13:51:59;;;;;;;3.75;1.48;;;8.50;99.80;;;;;;4996788;28;20034;-85
2022/01/31 13:54:26;;;;;;;6.32;2.10;;;8.60;99.70;;;;;;4994465;28;20483;-83
2022/01/31 13:56:59;;;;;;;16.55;2.05;;;8.70;99.70;;;;;;4996496;28;20104;-90
2022/01/31 13:59:27;;;;;;;6.50;1.85;;;8.60;99.70;;;;;;4996002;28;20034;-85
2022/01/31 14:02:10;;;;;;;5.15;1.95;;;8.60;99.90;;;;;;4994017;28;20037;-80
2022/01/31 14:04:37;;;;;;;2.63;1.80;;;8.70;99.70;;;;;;4995383;28;20034;-85
2022/01/31 14:07:03;;;;;;;4.20;2.33;;;8.70;99.40;;;;;;4993365;28;20040;-83
2022/01/31 14:09:34;;;;;;;3.50;2.10;;;8.50;99.10;;;;;;4992819;28;20452;-86
2022/01/31 14:12:00;;;;;;;3.28;2.40;;;8.40;99.20;;;;;;4993399;28;20018;-84
2022/01/31 14:14:30;;;;;;;3.65;2.70;;;8.20;99.40;;;;;;4993809;28;20361;-84
2022/01/31 14:16:56;;;;;;;3.38;2.08;;;8.30;99.50;;;;;;4991529;28;20367;-75
2022/01/31 14:19:25;;;;;;;4.50;2.72;;;8.10;99.70;;;;;;4991260;28;20034;-76
2022/01/31 14:21:54;;;;;;;3.55;2.50;;;8.20;99.50;;;;;;4992594;28;20057;-82
2022/01/31 14:24:27;;;;;;;3.30;2.67;;;8.10;99.40;;;;;;4992557;28;20345;-83
2022/01/31 14:26:59;;;;;;;4.22;2.45;;;7.90;99.60;;;;;;4993167;28;20054;-85
2022/01/31 14:29:25;;;;;;;3.85;2.72;;;8.00;99.90;;;;;;4993206;28;20038;-82
2022/01/31 14:31:51;;;;;;;5.57;3.10;;;8.10;99.90;;;;;;4993196;28;20460;-87
2022/01/31 14:34:19;;;;;;;5.30;2.83;;;8.10;99.80;;;;;;4993104;28;20034;-85
2022/01/31 14:36:51;;;;;;;3.78;2.78;;;8.10;99.50;;;;;;4991924;28;20026;-81
2022/01/31 14:39:40;;;;;;;6.68;2.85;;;8.00;99.50;;;;;;4993396;28;20026;-82
2022/01/31 14:47:55;;;;;;;6.28;3.30;;;8.00;99.80;;;;;;4996897;28;20474;-82
2022/01/31 14:50:29;;;;;;;6.32;2.85;;;8.00;99.80;;;;;;4996233;28;20034;-83
2022/01/31 14:52:55;;;;;;;3.38;1.98;;;8.00;99.70;;;;;;4996431;28;20094;-80
2022/01/31 14:55:23;;;;;;;6.43;1.98;;;7.60;99.80;;;;;;4996608;28;20038;-84
2022/01/31 14:57:50;;;;;;;4.63;2.20;;;7.60;99.80;;;;;;4995761;28;20031;-86
2022/01/31 15:00:18;;;;;;;3.75;2.28;;;7.70;99.90;;;;;;4998972;28;20022;-84
2022/01/31 15:02:53;;;;;;;2.80;2.17;;;7.70;99.90;;;;;;4997379;28;20063;-89
2022/01/31 15:05:25;;;;;;;2.75;2.30;;;7.70;99.90;;;;;;4997886;28;20039;-90